Time;durP1;ratioP1;P1;durP2;ratioP2;P2;SDS_P1;SDS_P2;PMS_P1;PMS_P2;Temp;Humidity;BMP_temperature;BMP_pressure;BME280_temperature;BME280_humidity;BME280_pressure;Samples;Min_cycle;Max_cycle;Signal;HPM_P1;HPM_P2
2022/09/05 00:01:39;;;;;;;5.53;3.65;;;25.60;99.90;;;;;;5033288;28;20417;-75
2022/09/05 00:04:12;;;;;;;5.60;3.80;;;25.50;99.90;;;;;;5017489;28;20045;-74
2022/09/05 00:06:51;;;;;;;7.07;4.35;;;25.60;99.90;;;;;;5015574;28;20419;-74
2022/09/05 00:09:36;;;;;;;8.48;3.92;;;25.50;99.90;;;;;;5033012;28;20504;-74
2022/09/05 00:12:06;;;;;;;9.70;4.45;;;25.50;99.90;;;;;;5032037;28;20056;-75
2022/09/05 00:14:58;;;;;;;4.47;3.38;;;25.50;99.90;;;;;;5015582;28;20049;-74
2022/09/05 00:18:03;;;;;;;6.00;3.22;;;25.50;99.90;;;;;;5015338;28;20041;-74
2022/09/05 00:20:58;;;;;;;5.20;3.55;;;25.50;99.90;;;;;;5031589;28;20563;-74
2022/09/05 00:23:44;;;;;;;6.15;3.72;;;25.50;99.90;;;;;;5032718;28;20503;-74
2022/09/05 00:26:12;;;;;;;;;;;25.40;99.90;;;;;;5035236;28;20565;-74
2022/09/05 00:28:48;;;;;;;7.90;3.72;;;25.40;99.90;;;;;;5051281;28;19982;-75
2022/09/05 00:31:19;;;;;;;5.35;3.33;;;25.40;99.90;;;;;;5035204;28;20053;-74
2022/09/05 00:34:08;;;;;;;5.82;3.30;;;25.40;99.90;;;;;;5034948;28;20144;-76
2022/09/05 00:36:41;;;;;;;6.03;3.45;;;25.40;99.90;;;;;;5034793;28;20482;-74
2022/09/05 00:39:24;;;;;;;6.13;3.30;;;25.40;99.90;;;;;;5052509;28;20045;-74
2022/09/05 00:41:57;;;;;;;5.57;3.60;;;25.40;99.90;;;;;;5018092;28;20107;-74
2022/09/05 00:44:30;;;;;;;8.23;2.97;;;25.40;99.90;;;;;;5051172;28;20041;-74
2022/09/05 00:47:27;;;;;;;5.63;3.30;;;25.40;99.90;;;;;;5052451;28;20052;-74
2022/09/05 00:50:00;;;;;;;5.82;3.53;;;25.40;99.90;;;;;;5042331;28;20049;-75
2022/09/05 00:52:41;;;;;;;5.57;3.22;;;25.40;99.90;;;;;;5051397;28;20037;-74
2022/09/05 00:55:10;;;;;;;5.85;3.38;;;25.40;99.90;;;;;;5051104;28;20041;-74
2022/09/05 00:58:02;;;;;;;4.38;2.95;;;25.40;99.90;;;;;;5050371;28;20407;-79
2022/09/05 01:00:54;;;;;;;4.88;3.25;;;25.40;99.90;;;;;;5050863;28;20136;-74
2022/09/05 01:03:33;;;;;;;8.70;3.58;;;25.30;99.90;;;;;;5051335;28;20088;-74
2022/09/05 01:06:10;;;;;;;4.32;3.15;;;25.30;99.90;;;;;;5034261;28;20052;-74
2022/09/05 01:08:47;;;;;;;4.97;3.15;;;25.30;99.90;;;;;;5034176;28;20499;-75
2022/09/05 01:11:52;;;;;;;5.28;3.78;;;25.20;99.90;;;;;;5051872;28;20106;-75
2022/09/05 01:14:19;;;;;;;5.15;3.38;;;25.10;99.90;;;;;;5034396;28;20114;-75
2022/09/05 01:16:53;;;;;;;5.30;3.13;;;25.10;99.90;;;;;;5033628;28;20049;-75
2022/09/05 01:19:59;;;;;;;4.78;3.13;;;25.10;99.90;;;;;;5050836;28;20076;-74
2022/09/05 01:22:32;;;;;;;4.40;2.72;;;25.10;99.90;;;;;;5051932;28;20044;-76
2022/09/05 01:25:03;;;;;;;4.85;2.42;;;25.10;99.90;;;;;;5051665;28;20067;-73
2022/09/05 01:28:04;;;;;;;4.85;3.10;;;25.10;99.90;;;;;;5033897;28;20102;-73
2022/09/05 01:30:47;;;;;;;4.00;2.65;;;25.10;99.90;;;;;;5033979;28;20052;-73
2022/09/05 01:33:42;;;;;;;3.80;2.67;;;25.10;99.90;;;;;;5050449;28;20098;-75
2022/09/05 01:36:36;;;;;;;4.38;2.60;;;25.10;99.90;;;;;;5033836;28;20044;-74
2022/09/05 01:39:25;;;;;;;3.78;2.85;;;25.10;99.90;;;;;;5029898;28;20069;-75
2022/09/05 01:42:28;;;;;;;4.78;2.53;;;25.10;99.90;;;;;;5014182;28;20412;-74
2022/09/05 01:45:06;;;;;;;9.10;2.63;;;25.10;99.90;;;;;;5030060;28;20132;-75
2022/09/05 01:48:13;;;;;;;7.30;3.08;;;25.10;99.90;;;;;;5030238;28;20583;-75
2022/09/05 01:51:01;;;;;;;6.68;3.28;;;25.10;99.90;;;;;;4996052;28;20053;-75
2022/09/05 01:54:09;;;;;;;5.60;3.53;;;25.10;99.90;;;;;;5013451;28;20057;-74
2022/09/05 01:57:10;;;;;;;6.35;3.47;;;25.00;99.90;;;;;;5030124;28;20172;-76
2022/09/05 02:00:04;;;;;;;4.43;2.47;;;25.10;99.90;;;;;;5029763;28;20510;-79
2022/09/05 02:02:54;;;;;;;3.75;2.60;;;25.10;99.90;;;;;;5029904;28;20140;-75
2022/09/05 02:05:37;;;;;;;4.68;3.60;;;25.10;99.90;;;;;;5047815;28;20051;-77
2022/09/05 02:08:14;;;;;;;5.35;2.97;;;25.10;99.90;;;;;;5033100;28;20136;-75
2022/09/05 02:10:58;;;;;;;4.90;3.22;;;25.10;99.90;;;;;;5032237;28;20052;-77
2022/09/05 02:13:35;;;;;;;5.30;3.30;;;25.10;99.90;;;;;;5050822;28;20495;-75
2022/09/05 02:16:20;;;;;;;4.95;2.78;;;25.10;99.90;;;;;;5032640;28;20063;-76
2022/09/05 02:19:03;;;;;;;9.23;3.08;;;25.00;99.90;;;;;;5033623;28;20048;-76
2022/09/05 02:21:37;;;;;;;3.53;2.45;;;25.00;99.90;;;;;;5049168;28;20235;-75
2022/09/05 02:24:07;;;;;;;5.07;3.30;;;25.00;99.90;;;;;;5032871;28;20063;-75
2022/09/05 02:26:52;;;;;;;4.15;3.08;;;25.00;99.90;;;;;;5033353;28;20085;-75
2022/09/05 02:29:38;;;;;;;5.20;2.33;;;24.90;99.90;;;;;;5032567;28;20102;-75
2022/09/05 02:32:22;;;;;;;3.85;2.30;;;24.90;99.90;;;;;;5050525;28;20068;-75
2022/09/05 02:35:00;;;;;;;4.10;2.80;;;24.90;99.90;;;;;;5050411;28;20102;-76
2022/09/05 02:37:35;;;;;;;4.00;2.40;;;24.90;99.90;;;;;;5032371;28;20056;-74
2022/09/05 02:40:35;;;;;;;5.40;2.40;;;24.80;99.90;;;;;;5050208;28;20041;-76
2022/09/05 02:43:30;;;;;;;3.45;2.30;;;24.80;99.90;;;;;;5016522;28;20139;-77
2022/09/05 02:46:36;;;;;;;4.57;2.50;;;24.80;99.90;;;;;;5049918;28;20060;-76
2022/09/05 02:49:17;;;;;;;3.55;2.47;;;24.70;99.90;;;;;;5039436;28;20048;-75
2022/09/05 02:51:57;;;;;;;4.68;2.22;;;24.70;99.90;;;;;;5048770;28;20041;-75
2022/09/05 02:54:31;;;;;;;4.30;2.30;;;24.70;99.90;;;;;;5016234;28;20138;-75
2022/09/05 02:57:20;;;;;;;7.13;2.33;;;24.70;99.90;;;;;;5049029;28;20052;-74
2022/09/05 03:00:03;;;;;;;3.15;2.33;;;24.70;99.90;;;;;;5032529;28;20045;-73
2022/09/05 03:03:08;;;;;;;3.10;1.98;;;24.70;99.90;;;;;;5039815;28;20055;-73
2022/09/05 03:05:59;;;;;;;2.72;2.00;;;24.70;99.90;;;;;;5029182;28;20052;-73
2022/09/05 03:08:49;;;;;;;8.73;2.28;;;24.70;99.90;;;;;;5012518;28;20579;-74
2022/09/05 03:11:47;;;;;;;4.30;2.10;;;24.60;99.90;;;;;;4996322;28;20056;-73
2022/09/05 03:14:21;;;;;;;5.45;2.28;;;24.60;99.90;;;;;;5012493;28;20045;-72
2022/09/05 03:17:19;;;;;;;3.08;1.70;;;24.60;99.90;;;;;;5028926;28;20051;-73
2022/09/05 03:19:53;;;;;;;2.75;1.83;;;24.60;99.90;;;;;;5062023;28;20083;-73
2022/09/05 03:22:48;;;;;;;4.32;2.25;;;24.60;99.90;;;;;;5016711;28;20183;-73
2022/09/05 03:25:22;;;;;;;3.88;2.22;;;24.60;99.90;;;;;;5033757;28;20518;-73
2022/09/05 03:28:07;;;;;;;2.80;1.85;;;24.60;99.90;;;;;;5032588;28;20084;-73
2022/09/05 03:31:04;;;;;;;3.72;1.80;;;24.70;99.90;;;;;;5032727;28;20049;-75
2022/09/05 03:33:46;;;;;;;2.80;1.95;;;24.70;99.90;;;;;;5016146;28;20045;-74
2022/09/05 03:36:23;;;;;;;3.10;1.90;;;24.70;99.90;;;;;;5032392;28;20085;-73
2022/09/05 03:39:28;;;;;;;2.80;1.73;;;24.60;99.90;;;;;;4999918;28;20523;-74
2022/09/05 03:42:28;;;;;;;4.20;1.90;;;24.60;99.90;;;;;;5015602;28;20080;-73
2022/09/05 03:45:18;;;;;;;3.13;1.70;;;24.60;99.90;;;;;;5032815;28;20045;-74
2022/09/05 03:48:27;;;;;;;3.65;2.05;;;24.60;99.90;;;;;;5015714;28;20076;-77
2022/09/05 03:51:18;;;;;;;5.30;1.90;;;24.60;99.90;;;;;;5048026;28;20048;-74
2022/09/05 03:54:30;;;;;;;4.90;2.10;;;24.60;99.90;;;;;;5035677;28;20060;-75
2022/09/05 03:57:12;;;;;;;5.03;2.35;;;24.60;99.90;;;;;;5051885;28;20045;-74
2022/09/05 04:00:26;;;;;;;7.50;2.30;;;24.60;99.90;;;;;;5051869;28;20815;-75
2022/09/05 04:02:57;;;;;;;3.40;1.98;;;24.50;99.90;;;;;;5052129;28;20047;-74
2022/09/05 04:05:32;;;;;;;3.30;1.85;;;24.60;99.90;;;;;;5052187;28;20103;-73
2022/09/05 04:08:20;;;;;;;4.45;2.20;;;24.50;99.90;;;;;;5035542;28;20053;-74
2022/09/05 04:11:13;;;;;;;4.05;2.38;;;24.60;99.90;;;;;;5053156;28;20052;-74
2022/09/05 04:14:19;;;;;;;4.25;2.35;;;24.50;99.90;;;;;;5032106;28;20455;-72
2022/09/05 04:17:01;;;;;;;3.40;1.97;;;24.50;99.90;;;;;;5049534;28;20056;-74
2022/09/05 04:19:42;;;;;;;4.00;2.72;;;24.50;99.90;;;;;;5032854;28;20045;-74
2022/09/05 04:22:40;;;;;;;3.13;2.20;;;24.50;99.90;;;;;;5045602;28;20427;-78
2022/09/05 04:25:17;;;;;;;4.88;2.60;;;24.50;99.90;;;;;;5061203;28;20538;-77
2022/09/05 04:27:52;;;;;;;3.60;2.50;;;24.50;99.90;;;;;;5036918;28;20045;-74
2022/09/05 04:30:38;;;;;;;4.10;2.70;;;24.50;99.90;;;;;;5011165;28;20060;-74
2022/09/05 04:33:34;;;;;;;4.70;3.50;;;24.50;99.90;;;;;;5030783;28;20041;-74
2022/09/05 04:36:16;;;;;;;4.88;2.53;;;24.50;99.90;;;;;;5030566;28;20041;-75
2022/09/05 04:38:45;;;;;;;6.40;2.92;;;24.60;99.90;;;;;;5034756;28;20041;-75
2022/09/05 04:41:17;;;;;;;5.20;2.55;;;24.60;99.90;;;;;;5044899;28;20041;-75
2022/09/05 04:43:57;;;;;;;5.07;2.35;;;24.50;99.90;;;;;;5048276;28;20065;-75
2022/09/05 04:46:35;;;;;;;6.07;2.80;;;24.60;99.90;;;;;;5030187;28;20606;-75
2022/09/05 04:49:37;;;;;;;4.80;2.85;;;24.60;99.90;;;;;;5033560;28;20052;-74
2022/09/05 04:52:33;;;;;;;4.88;3.13;;;24.60;99.90;;;;;;5022454;28;20069;-74
2022/09/05 04:55:05;;;;;;;;;;;24.60;99.90;;;;;;5014214;28;20127;-77
2022/09/05 04:57:47;;;;;;;7.43;3.13;;;24.60;99.90;;;;;;5015443;28;19921;-75
2022/09/05 05:00:47;;;;;;;4.47;2.95;;;24.60;99.90;;;;;;5020505;28;20119;-76
2022/09/05 05:03:23;;;;;;;5.10;2.45;;;24.70;99.90;;;;;;5040593;28;20112;-76
2022/09/05 05:06:09;;;;;;;7.07;2.40;;;24.70;99.90;;;;;;5023216;28;20053;-75
2022/09/05 05:09:20;;;;;;;6.88;2.95;;;24.80;99.90;;;;;;5007780;28;20495;-77
2022/09/05 05:11:57;;;;;;;6.15;2.92;;;24.90;99.90;;;;;;5027261;28;20053;-76
2022/09/05 05:14:34;;;;;;;4.07;2.80;;;25.10;99.90;;;;;;5030876;28;20041;-74
2022/09/05 05:17:27;;;;;;;5.15;2.88;;;25.20;99.90;;;;;;5030774;28;20056;-75
2022/09/05 05:20:30;;;;;;;4.80;2.97;;;25.30;99.90;;;;;;5012400;28;20041;-75
2022/09/05 05:23:02;;;;;;;4.90;2.80;;;25.50;99.90;;;;;;5028547;28;20038;-75
2022/09/05 05:25:39;;;;;;;6.00;2.85;;;25.50;99.90;;;;;;5029825;28;20045;-76
2022/09/05 05:28:12;;;;;;;4.43;2.80;;;25.70;99.90;;;;;;5030165;28;20049;-74
2022/09/05 05:30:42;;;;;;;4.82;2.88;;;25.80;99.90;;;;;;5012064;28;20072;-75
2022/09/05 05:33:27;;;;;;;5.10;3.63;;;26.00;99.90;;;;;;5011983;28;20089;-76
2022/09/05 05:35:59;;;;;;;3.77;2.83;;;26.20;99.90;;;;;;5011902;28;20041;-75
2022/09/05 05:38:52;;;;;;;3.40;2.35;;;26.30;99.90;;;;;;4995544;28;20126;-76
2022/09/05 05:41:32;;;;;;;3.70;2.40;;;26.40;99.90;;;;;;5028267;28;20045;-75
2022/09/05 05:44:21;;;;;;;6.55;2.40;;;26.50;99.90;;;;;;5030024;28;20052;-75
2022/09/05 05:47:09;;;;;;;3.80;2.35;;;26.70;99.90;;;;;;5031554;28;20061;-74
2022/09/05 05:49:50;;;;;;;4.25;2.47;;;26.90;99.90;;;;;;5013765;28;20076;-74
2022/09/05 05:52:53;;;;;;;3.90;2.60;;;27.00;99.90;;;;;;4997368;28;20395;-74
2022/09/05 05:55:51;;;;;;;5.50;2.22;;;27.20;99.90;;;;;;5025604;28;20053;-74
2022/09/05 05:58:31;;;;;;;5.80;2.72;;;27.40;99.90;;;;;;5029744;28;20113;-74
2022/09/05 06:01:05;;;;;;;3.70;2.30;;;27.40;99.90;;;;;;5029937;28;20053;-74
2022/09/05 06:04:00;;;;;;;5.05;2.28;;;27.30;99.90;;;;;;5014091;28;20052;-74
2022/09/05 06:06:47;;;;;;;7.30;2.78;;;27.10;99.90;;;;;;5013528;28;20052;-74
2022/09/05 06:09:52;;;;;;;5.25;2.28;;;27.00;99.90;;;;;;5029904;28;20057;-76
2022/09/05 06:13:17;;;;;;;7.85;2.20;;;27.10;99.90;;;;;;5018505;28;20049;-73
2022/09/05 06:16:22;;;;;;;4.15;2.05;;;27.20;99.90;;;;;;5029557;28;20542;-75
2022/09/05 06:19:20;;;;;;;4.13;1.88;;;27.40;99.90;;;;;;5013389;28;20412;-76
2022/09/05 06:22:07;;;;;;;6.80;2.17;;;27.60;99.90;;;;;;5012878;28;20042;-74
2022/09/05 06:25:22;;;;;;;3.78;2.17;;;27.80;99.90;;;;;;5031046;28;20049;-74
2022/09/05 06:28:24;;;;;;;5.35;1.95;;;27.90;99.90;;;;;;5028969;28;20495;-75
2022/09/05 06:31:38;;;;;;;5.18;2.45;;;27.90;99.90;;;;;;5013033;28;20041;-74
2022/09/05 06:34:24;;;;;;;8.32;2.42;;;27.60;99.90;;;;;;5012433;28;20128;-74
2022/09/05 06:36:57;;;;;;;;;;;27.40;99.90;;;;;;4997515;28;20244;-73
2022/09/05 06:39:47;;;;;;;4.90;2.15;;;27.20;99.90;;;;;;5029293;28;19971;-73
2022/09/05 06:42:46;;;;;;;4.72;2.53;;;27.00;99.90;;;;;;5012585;28;20052;-74
2022/09/05 06:45:20;;;;;;;5.65;2.03;;;26.80;99.90;;;;;;5013088;28;20080;-76
2022/09/05 06:47:53;;;;;;;4.15;2.33;;;26.70;99.90;;;;;;5028894;28;20121;-74
2022/09/05 06:50:24;;;;;;;4.90;2.42;;;26.70;99.90;;;;;;5013242;28;20038;-74
2022/09/05 06:53:29;;;;;;;5.45;1.92;;;26.60;99.90;;;;;;5013203;28;20479;-74
2022/09/05 06:56:05;;;;;;;3.55;2.05;;;26.60;99.90;;;;;;5012614;28;20051;-76
2022/09/05 06:58:51;;;;;;;3.65;2.13;;;26.60;99.90;;;;;;5014418;28;20413;-75
2022/09/05 07:01:56;;;;;;;5.07;2.38;;;26.70;99.90;;;;;;5012622;28;20439;-74
2022/09/05 07:04:24;;;;;;;5.35;2.08;;;26.70;99.90;;;;;;5029342;28;20121;-74
2022/09/05 07:07:10;;;;;;;4.90;2.38;;;26.70;99.90;;;;;;5012892;28;20069;-74
2022/09/05 07:10:02;;;;;;;7.80;2.30;;;26.70;99.90;;;;;;4996477;28;20053;-76
2022/09/05 07:12:49;;;;;;;12.68;3.53;;;26.70;99.90;;;;;;5013616;28;20472;-74
2022/09/05 07:15:54;;;;;;;6.35;2.20;;;26.70;99.90;;;;;;5012992;28;20085;-75
2022/09/05 07:18:47;;;;;;;6.82;3.15;;;26.60;99.90;;;;;;5040769;28;20148;-74
2022/09/05 07:21:44;;;;;;;8.80;3.33;;;26.60;99.90;;;;;;5049142;28;20045;-74
2022/09/05 07:24:26;;;;;;;6.40;2.55;;;26.50;99.90;;;;;;5032598;28;20045;-75
2022/09/05 07:26:57;;;;;;;3.80;2.35;;;26.40;99.90;;;;;;5032279;28;20061;-74
2022/09/05 07:29:39;;;;;;;5.65;3.00;;;26.40;99.90;;;;;;5032751;28;20049;-74
2022/09/05 07:32:14;;;;;;;5.90;2.55;;;26.30;99.90;;;;;;5050154;28;20078;-74
2022/09/05 07:34:46;;;;;;;10.35;3.20;;;26.30;99.90;;;;;;5032393;28;20126;-78
2022/09/05 07:37:24;;;;;;;3.90;2.25;;;26.60;99.90;;;;;;5048641;28;20053;-75
2022/09/05 07:39:59;;;;;;;4.78;2.25;;;26.90;99.90;;;;;;5049731;28;20056;-75
2022/09/05 07:42:35;;;;;;;13.75;2.90;;;27.10;99.90;;;;;;5048580;28;20053;-74
2022/09/05 07:45:09;;;;;;;8.20;2.63;;;27.30;99.90;;;;;;5032403;28;20079;-74
2022/09/05 07:47:56;;;;;;;6.03;2.50;;;27.70;99.90;;;;;;5048950;28;20048;-74
2022/09/05 07:50:26;;;;;;;4.63;2.15;;;28.00;99.90;;;;;;5048740;28;20053;-75
2022/09/05 07:52:57;;;;;;;4.05;1.88;;;28.50;99.90;;;;;;5048705;28;20036;-74
2022/09/05 07:55:28;;;;;;;4.18;1.88;;;28.70;99.90;;;;;;5032253;28;20111;-74
2022/09/05 07:57:59;;;;;;;3.45;1.95;;;28.90;99.90;;;;;;5031801;28;20507;-76
2022/09/05 08:00:29;;;;;;;5.18;2.83;;;29.20;99.90;;;;;;5049527;28;20507;-75
2022/09/05 08:03:13;;;;;;;3.97;2.78;;;29.30;99.90;;;;;;5046437;28;20155;-75
2022/09/05 08:05:49;;;;;;;4.13;2.38;;;29.10;99.90;;;;;;5031982;28;20045;-74
2022/09/05 08:08:30;;;;;;;3.08;1.77;;;28.80;99.90;;;;;;5033560;28;20079;-76
2022/09/05 08:11:09;;;;;;;4.70;2.35;;;28.70;99.90;;;;;;5051996;28;20055;-75
2022/09/05 08:13:43;;;;;;;7.60;2.75;;;28.50;99.90;;;;;;5053270;28;20558;-76
2022/09/05 08:16:15;;;;;;;6.55;2.42;;;28.60;99.90;;;;;;5051988;28;20033;-74
2022/09/05 08:18:51;;;;;;;3.88;2.25;;;28.80;99.90;;;;;;5035726;28;20444;-74
2022/09/05 08:21:29;;;;;;;4.55;1.98;;;29.10;99.90;;;;;;5018980;28;20518;-76
2022/09/05 08:24:08;;;;;;;4.05;2.63;;;29.30;99.90;;;;;;5051888;28;20056;-74
2022/09/05 08:26:51;;;;;;;4.95;2.03;;;29.20;99.90;;;;;;5051995;28;20052;-75
2022/09/05 08:29:29;;;;;;;5.80;2.85;;;29.20;99.90;;;;;;5035123;28;20052;-75
2022/09/05 08:32:25;;;;;;;4.35;2.00;;;29.40;99.90;;;;;;5052790;28;20161;-74
2022/09/05 08:35:23;;;;;;;4.60;2.28;;;29.60;99.90;;;;;;5035351;28;20136;-74
2022/09/05 08:37:53;;;;;;;5.05;2.53;;;29.80;99.90;;;;;;5034628;28;20061;-76
2022/09/05 08:40:50;;;;;;;6.95;3.05;;;30.00;99.90;;;;;;5035231;28;20502;-72
2022/09/05 08:43:20;;;;;;;4.38;2.13;;;30.10;99.60;;;;;;5048293;28;20425;-73
2022/09/05 08:46:03;;;;;;;4.90;2.05;;;30.20;98.70;;;;;;5051202;28;20099;-73
2022/09/05 08:48:58;;;;;;;3.60;2.20;;;30.10;97.80;;;;;;5034928;28;20491;-73
2022/09/05 08:51:41;;;;;;;4.72;2.50;;;30.20;97.60;;;;;;5052886;28;20044;-73
2022/09/05 08:54:18;;;;;;;4.82;2.47;;;30.20;97.40;;;;;;5050924;28;20103;-74
2022/09/05 08:57:06;;;;;;;5.55;3.13;;;30.40;97.10;;;;;;5021376;28;20526;-74
2022/09/05 08:59:41;;;;;;;4.85;2.17;;;30.50;96.90;;;;;;5031113;28;20057;-75
2022/09/05 09:02:46;;;;;;;2.60;1.70;;;30.60;97.10;;;;;;5014588;28;20037;-74
2022/09/05 09:05:43;;;;;;;6.22;1.90;;;30.70;96.90;;;;;;5031028;28;20057;-73
2022/09/05 09:08:45;;;;;;;3.80;2.05;;;30.70;96.10;;;;;;5014622;28;20049;-74
2022/09/05 09:11:37;;;;;;;5.13;2.35;;;30.70;96.10;;;;;;5010323;28;20703;-73
2022/09/05 09:14:20;;;;;;;3.78;2.40;;;30.70;96.00;;;;;;5030955;28;20134;-74
2022/09/05 09:17:16;;;;;;;3.80;2.10;;;30.60;96.00;;;;;;5030897;28;20060;-76
2022/09/05 09:19:45;;;;;;;;;;;30.70;95.60;;;;;;5030668;28;20060;-73
2022/09/05 09:23:00;;;;;;;3.70;2.13;;;30.60;95.40;;;;;;5030541;28;19928;-73
2022/09/05 09:25:35;;;;;;;2.55;1.77;;;30.50;95.30;;;;;;5010175;28;20052;-75
2022/09/05 09:28:34;;;;;;;5.22;2.15;;;30.50;96.00;;;;;;5030680;28;20080;-72
2022/09/05 09:31:14;;;;;;;4.38;2.38;;;30.60;96.20;;;;;;5027653;28;20045;-73
2022/09/05 09:34:04;;;;;;;5.93;3.10;;;30.60;96.10;;;;;;5030470;28;20096;-74
2022/09/05 09:37:00;;;;;;;4.80;2.72;;;30.70;95.90;;;;;;5030137;28;20728;-74
2022/09/05 09:40:05;;;;;;;4.83;2.30;;;30.80;95.60;;;;;;5030395;28;20057;-73
2022/09/05 09:42:32;;;;;;;6.18;2.83;;;30.90;95.90;;;;;;5013870;28;20120;-74
2022/09/05 09:45:20;;;;;;;4.30;2.75;;;30.90;95.30;;;;;;5015211;28;20056;-72
2022/09/05 09:48:09;;;;;;;3.67;2.65;;;31.00;95.10;;;;;;5033472;28;20064;-73
2022/09/05 09:50:59;;;;;;;4.53;2.50;;;30.90;94.90;;;;;;5033544;28;20215;-73
2022/09/05 09:53:57;;;;;;;4.32;2.97;;;30.90;94.00;;;;;;5050215;28;20110;-74
2022/09/05 09:56:36;;;;;;;6.80;3.22;;;30.90;94.00;;;;;;5051133;28;20076;-75
2022/09/05 09:59:13;;;;;;;7.53;3.40;;;30.90;94.60;;;;;;5049928;28;20079;-76
2022/09/05 10:02:07;;;;;;;5.40;2.97;;;30.80;94.20;;;;;;5033210;28;20148;-73
2022/09/05 10:04:53;;;;;;;5.57;2.78;;;30.80;94.00;;;;;;5033366;28;20053;-76
2022/09/05 10:07:39;;;;;;;5.93;3.20;;;30.90;93.80;;;;;;5049925;28;20041;-73
2022/09/05 10:10:32;;;;;;;5.15;3.40;;;30.90;93.60;;;;;;5033432;28;20064;-75
2022/09/05 10:13:33;;;;;;;6.93;3.35;;;30.90;93.20;;;;;;5034390;28;20048;-75
2022/09/05 10:16:26;;;;;;;5.00;3.35;;;30.90;92.60;;;;;;5044779;28;20074;-72
2022/09/05 10:19:21;;;;;;;6.78;3.05;;;30.90;93.10;;;;;;5050115;28;20132;-73
2022/09/05 10:22:29;;;;;;;3.35;2.35;;;30.90;92.50;;;;;;5049521;28;20090;-73
2022/09/05 10:25:20;;;;;;;3.65;2.28;;;30.80;92.00;;;;;;5033829;28;20107;-73
2022/09/05 10:27:59;;;;;;;4.85;2.00;;;30.90;92.30;;;;;;5032488;28;20379;-73
2022/09/05 10:30:39;;;;;;;3.45;2.40;;;30.90;91.80;;;;;;5032410;28;20110;-72
2022/09/05 10:33:18;;;;;;;4.10;2.33;;;30.90;92.30;;;;;;5032768;28;20483;-72
2022/09/05 10:35:52;;;;;;;4.60;2.83;;;31.00;92.20;;;;;;5049196;28;20065;-73
2022/09/05 10:38:41;;;;;;;7.13;2.50;;;31.10;92.00;;;;;;5032644;28;20057;-73
2022/09/05 10:41:13;;;;;;;5.68;2.40;;;31.00;91.80;;;;;;5049287;28;20094;-74
2022/09/05 10:43:49;;;;;;;4.05;2.17;;;31.00;92.50;;;;;;5049040;28;20041;-76
2022/09/05 10:46:36;;;;;;;3.97;2.17;;;31.00;92.40;;;;;;5032866;28;20068;-73
2022/09/05 10:49:29;;;;;;;3.78;2.25;;;31.00;91.80;;;;;;5004469;28;20052;-73
2022/09/05 10:52:09;;;;;;;3.90;2.50;;;30.90;92.50;;;;;;5048922;28;20045;-73
2022/09/05 10:54:59;;;;;;;3.33;2.22;;;30.90;92.40;;;;;;5050456;28;20491;-73
2022/09/05 10:58:04;;;;;;;4.75;3.10;;;30.80;92.60;;;;;;5032596;28;20572;-72
2022/09/05 11:00:41;;;;;;;5.22;2.70;;;30.60;92.20;;;;;;5049137;28;20049;-75
2022/09/05 11:03:15;;;;;;;3.30;2.30;;;30.70;92.30;;;;;;5049181;28;20479;-73
2022/09/05 11:06:04;;;;;;;4.05;3.05;;;30.60;92.70;;;;;;5048996;28;20688;-73
2022/09/05 11:08:44;;;;;;;4.25;2.47;;;30.50;92.80;;;;;;5048881;28;20033;-74
2022/09/05 11:11:21;;;;;;;4.10;2.45;;;30.60;93.10;;;;;;5016071;28;20053;-73
2022/09/05 11:13:53;;;;;;;3.78;2.42;;;30.60;93.50;;;;;;5015881;28;20142;-75
2022/09/05 11:16:42;;;;;;;4.50;2.55;;;30.60;93.10;;;;;;5016368;28;20080;-73
2022/09/05 11:19:22;;;;;;;3.33;2.35;;;30.60;93.10;;;;;;5032517;28;20061;-72
2022/09/05 11:22:05;;;;;;;4.70;3.33;;;30.60;93.40;;;;;;5032326;28;20051;-74
2022/09/05 11:24:51;;;;;;;5.32;2.30;;;30.60;93.60;;;;;;5047855;28;20045;-73
2022/09/05 11:27:33;;;;;;;3.53;2.45;;;30.60;93.40;;;;;;5028693;28;20099;-75
2022/09/05 11:30:05;;;;;;;3.13;2.05;;;30.60;93.40;;;;;;5012132;28;20407;-73
2022/09/05 11:33:03;;;;;;;3.25;2.17;;;30.60;92.60;;;;;;5012939;28;20532;-73
2022/09/05 11:35:37;;;;;;;5.03;2.67;;;30.60;93.00;;;;;;5028551;28;20049;-73
2022/09/05 11:38:08;;;;;;;3.75;2.60;;;30.60;92.50;;;;;;5012479;28;20066;-73
2022/09/05 11:40:54;;;;;;;3.58;2.30;;;30.60;92.30;;;;;;5012395;28;20136;-73
2022/09/05 11:43:27;;;;;;;4.32;2.28;;;30.50;92.30;;;;;;5017112;28;20088;-73
2022/09/05 11:46:25;;;;;;;4.55;2.50;;;30.40;92.60;;;;;;5032058;28;20383;-72
2022/09/05 11:49:10;;;;;;;3.28;2.17;;;30.40;92.70;;;;;;5015990;28;20048;-73
2022/09/05 11:52:05;;;;;;;4.72;2.38;;;30.40;92.60;;;;;;5015989;28;20056;-73
2022/09/05 11:54:57;;;;;;;4.25;3.05;;;30.30;92.60;;;;;;5015606;28;20061;-73
2022/09/05 11:57:43;;;;;;;4.63;2.53;;;30.30;92.60;;;;;;4999719;28;20045;-73
2022/09/05 12:00:15;;;;;;;5.05;2.55;;;30.30;92.00;;;;;;5033607;28;20172;-73
2022/09/05 12:03:10;;;;;;;5.90;3.15;;;30.20;92.30;;;;;;5016044;28;20049;-76
2022/09/05 12:06:12;;;;;;;6.40;3.38;;;30.10;92.70;;;;;;5026927;28;20083;-77
2022/09/05 12:08:54;;;;;;;7.35;3.75;;;30.00;92.70;;;;;;5033698;28;20415;-73
2022/09/05 12:11:40;;;;;;;6.25;2.72;;;30.00;93.20;;;;;;5033964;28;20487;-73
2022/09/05 12:14:26;;;;;;;5.70;2.97;;;29.90;93.10;;;;;;5048757;28;20045;-74
2022/09/05 12:17:28;;;;;;;6.15;3.03;;;29.90;93.60;;;;;;5029326;28;20128;-72
2022/09/05 12:20:24;;;;;;;7.70;3.40;;;29.80;93.50;;;;;;5040627;28;20138;-73
2022/09/05 12:23:12;;;;;;;;;;;29.80;93.80;;;;;;5016072;28;20046;-73
2022/09/05 12:26:25;;;;;;;6.50;3.20;;;29.80;93.60;;;;;;5023107;28;19931;-74
2022/09/05 12:29:02;;;;;;;4.45;2.75;;;29.60;93.90;;;;;;5013522;28;20049;-72
2022/09/05 12:31:38;;;;;;;4.65;2.60;;;29.60;94.60;;;;;;5019580;28;20057;-74
2022/09/05 12:34:12;;;;;;;4.80;3.17;;;29.50;94.70;;;;;;5017191;28;20403;-73
2022/09/05 12:36:48;;;;;;;5.40;2.45;;;29.60;94.90;;;;;;5023617;28;20084;-78
2022/09/05 12:39:25;;;;;;;7.70;2.78;;;29.50;95.10;;;;;;5032272;28;20376;-74
2022/09/05 12:41:58;;;;;;;6.03;3.53;;;29.50;95.10;;;;;;5028950;28;20057;-76
2022/09/05 12:44:47;;;;;;;5.45;2.97;;;29.50;95.20;;;;;;5038064;28;20072;-73
2022/09/05 12:47:22;;;;;;;8.60;3.10;;;29.50;95.20;;;;;;5034559;28;20041;-74
2022/09/05 12:50:10;;;;;;;5.03;2.90;;;29.50;95.30;;;;;;5025272;28;20084;-75
2022/09/05 12:52:50;;;;;;;5.13;2.50;;;29.50;95.60;;;;;;5017307;28;20064;-76
2022/09/05 12:55:37;;;;;;;4.43;2.20;;;29.30;94.60;;;;;;5042499;28;20037;-74
2022/09/05 12:58:21;;;;;;;4.90;2.40;;;29.30;94.30;;;;;;5017999;28;20160;-74
2022/09/05 13:00:53;;;;;;;3.65;2.63;;;29.20;94.20;;;;;;5027904;28;20060;-74
2022/09/05 13:03:27;;;;;;;4.60;3.15;;;29.30;94.00;;;;;;5020576;28;20041;-75
2022/09/05 13:06:18;;;;;;;4.68;2.60;;;29.20;94.50;;;;;;5015456;28;20045;-76
2022/09/05 13:08:49;;;;;;;5.00;3.17;;;29.10;94.00;;;;;;5021534;28;20053;-75
2022/09/05 13:11:20;;;;;;;9.60;3.33;;;29.10;93.40;;;;;;5020240;28;20073;-76
2022/09/05 13:14:04;;;;;;;5.80;4.28;;;29.00;93.50;;;;;;5031908;28;20133;-74
2022/09/05 13:16:38;;;;;;;7.82;3.75;;;28.90;94.00;;;;;;5025143;28;20060;-75
2022/09/05 13:19:18;;;;;;;5.95;4.35;;;28.90;93.90;;;;;;5033288;28;20446;-73
2022/09/05 13:21:51;;;;;;;7.53;4.45;;;28.80;94.00;;;;;;5009591;28;20101;-73
2022/09/05 13:24:31;;;;;;;7.50;4.43;;;28.80;93.80;;;;;;5006299;28;20439;-77
2022/09/05 13:27:16;;;;;;;6.18;4.90;;;28.80;94.10;;;;;;5047328;28;20049;-73
2022/09/05 13:29:54;;;;;;;8.43;5.03;;;28.70;94.10;;;;;;5025915;28;20410;-74
2022/09/05 13:32:36;;;;;;;8.00;5.10;;;28.70;94.80;;;;;;5045582;28;20492;-76
2022/09/05 13:35:08;;;;;;;8.50;5.38;;;28.70;95.00;;;;;;5028712;28;20427;-74
2022/09/05 13:37:46;;;;;;;9.90;5.47;;;28.80;95.10;;;;;;5033681;28;20430;-75
2022/09/05 13:40:27;;;;;;;7.55;5.20;;;28.70;95.10;;;;;;5027656;28;20059;-73
2022/09/05 13:43:09;;;;;;;8.85;5.68;;;28.80;95.30;;;;;;5043015;28;20049;-75
2022/09/05 13:45:59;;;;;;;9.10;5.32;;;28.80;95.20;;;;;;5031084;28;20530;-73
2022/09/05 13:48:48;;;;;;;8.45;5.68;;;28.70;95.30;;;;;;5015369;28;20124;-73
2022/09/05 13:51:42;;;;;;;9.98;7.22;;;28.70;95.10;;;;;;5002892;28;20110;-73
2022/09/05 13:54:19;;;;;;;9.95;6.47;;;28.70;94.80;;;;;;5018976;28;20037;-74
2022/09/05 13:57:27;;;;;;;11.13;5.90;;;28.60;94.70;;;;;;5033595;28;20042;-75
2022/09/05 14:00:08;;;;;;;7.00;4.97;;;28.50;94.70;;;;;;5038310;28;20067;-75
2022/09/05 14:03:14;;;;;;;7.10;5.32;;;28.60;95.50;;;;;;5033507;28;20045;-73
2022/09/05 14:06:56;;;;;;;8.80;4.97;;;28.50;95.50;;;;;;5048743;28;20442;-73
2022/09/05 14:10:27;;;;;;;10.50;4.60;;;28.60;95.40;;;;;;5015058;28;20051;-73
2022/09/05 14:13:10;;;;;;;7.43;4.63;;;28.50;95.40;;;;;;5013425;28;20084;-75
2022/09/05 14:15:58;;;;;;;6.15;3.88;;;28.40;95.20;;;;;;5049835;28;20040;-75
2022/09/05 14:18:31;;;;;;;6.78;4.68;;;28.40;95.00;;;;;;5033658;28;20407;-73
2022/09/05 14:21:15;;;;;;;6.53;4.38;;;28.40;95.40;;;;;;5049715;28;20045;-75
2022/09/05 14:23:55;;;;;;;5.97;4.13;;;28.30;95.20;;;;;;5049185;28;20102;-75